Time;durP1;ratioP1;P1;durP2;ratioP2;P2;SDS_P1;SDS_P2;PMS_P1;PMS_P2;Temp;Humidity;BMP_temperature;BMP_pressure;BME280_temperature;BME280_humidity;BME280_pressure;Samples;Min_cycle;Max_cycle;Signal;HPM_P1;HPM_P2
2022/07/18 00:01:58;;;;;;;1.23;0.88;;;;;;;;;;5070137;28;20067;-73
2022/07/18 00:04:23;;;;;;;4.25;1.00;;;;;;;;;;5068712;28;20024;-73
2022/07/18 00:06:49;;;;;;;2.03;1.10;;;;;;;;;;5068565;28;20082;-73
2022/07/18 00:09:14;;;;;;;2.28;1.10;;;;;;;;;;5069686;28;20020;-73
2022/07/18 00:11:39;;;;;;;0.93;0.80;;;;;;;;;;5069247;28;20104;-74
2022/07/18 00:14:05;;;;;;;3.28;1.10;;;;;;;;;;5069678;28;20024;-73
2022/07/18 00:16:30;;;;;;;1.20;1.00;;;;;;;;;;5067920;28;20036;-73
2022/07/18 00:18:58;;;;;;;3.00;1.00;;;;;;;;;;5069535;28;20028;-73
2022/07/18 00:21:24;;;;;;;2.03;0.80;;;;;;;;;;5069791;28;20025;-73
2022/07/18 00:23:49;;;;;;;1.88;0.90;;;;;;;;;;5069740;28;20459;-74
2022/07/18 00:26:15;;;;;;;1.55;0.80;;;;;;;;;;5069716;28;20024;-71
2022/07/18 00:28:40;;;;;;;1.20;0.80;;;;;;;;;;5067184;28;20059;-71
2022/07/18 00:31:05;;;;;;;1.67;1.00;;;;;;;;;;5069258;28;20020;-72
2022/07/18 00:33:31;;;;;;;1.30;1.00;;;;;;;;;;5069350;28;20478;-70
2022/07/18 00:35:56;;;;;;;2.58;1.20;;;;;;;;;;5069456;28;20024;-71
2022/07/18 00:38:21;;;;;;;1.45;0.95;;;;;;;;;;5069513;28;20028;-70
2022/07/18 00:40:47;;;;;;;4.15;1.10;;;;;;;;;;5069459;28;20028;-74
2022/07/18 00:43:13;;;;;;;4.07;1.00;;;;;;;;;;5068705;28;20025;-74
2022/07/18 00:45:39;;;;;;;1.40;1.10;;;;;;;;;;5068408;28;20032;-74
2022/07/18 00:48:08;;;;;;;2.92;1.13;;;;;;;;;;5068973;28;20024;-71
2022/07/18 00:50:34;;;;;;;1.40;0.93;;;;;;;;;;5069455;28;20394;-72
2022/07/18 00:52:59;;;;;;;2.80;1.00;;;;;;;;;;5069178;28;20036;-71
2022/07/18 00:55:24;;;;;;;3.17;1.23;;;;;;;;;;5068560;28;20053;-72
2022/07/18 00:57:51;;;;;;;1.50;1.05;;;;;;;;;;5068248;28;20557;-72
2022/07/18 01:03:00;;;;;;;1.60;1.10;;;;;;;;;;5068771;28;20140;-71
2022/07/18 01:05:25;;;;;;;1.98;1.20;;;;;;;;;;5068803;28;20139;-72
2022/07/18 01:07:51;;;;;;;2.85;1.10;;;;;;;;;;5068842;28;20032;-71
2022/07/18 01:10:18;;;;;;;3.00;1.10;;;;;;;;;;5068767;28;20036;-71
2022/07/18 01:12:44;;;;;;;2.72;1.08;;;;;;;;;;5069437;28;20032;-71
2022/07/18 01:15:09;;;;;;;4.30;1.15;;;;;;;;;;5068653;28;20035;-71
2022/07/18 01:17:34;;;;;;;1.90;1.00;;;;;;;;;;5071143;28;20477;-71
2022/07/18 01:20:00;;;;;;;1.95;1.10;;;;;;;;;;5068040;28;20031;-71
2022/07/18 01:22:25;;;;;;;3.03;1.20;;;;;;;;;;5066548;28;20587;-71
2022/07/18 01:24:51;;;;;;;2.17;1.27;;;;;;;;;;5068545;28;20032;-71
2022/07/18 01:27:18;;;;;;;2.63;1.30;;;;;;;;;;5068261;28;20028;-71
2022/07/18 01:29:45;;;;;;;2.55;1.20;;;;;;;;;;5068112;28;20467;-72
2022/07/18 01:32:10;;;;;;;2.42;1.10;;;;;;;;;;5068434;28;20029;-71
2022/07/18 01:34:36;;;;;;;2.38;1.15;;;;;;;;;;5068638;28;20055;-71
2022/07/18 01:37:03;;;;;;;1.92;1.30;;;;;;;;;;5066067;28;20463;-71
2022/07/18 01:39:28;;;;;;;2.55;1.23;;;;;;;;;;5068018;28;20028;-71
2022/07/18 01:42:02;;;;;;;4.20;1.30;;;;;;;;;;5068109;28;20746;-71
2022/07/18 01:44:28;;;;;;;2.90;1.10;;;;;;;;;;5068449;28;20028;-74
2022/07/18 01:46:54;;;;;;;1.40;1.08;;;;;;;;;;5068165;28;20033;-74
2022/07/18 01:49:20;;;;;;;1.15;1.00;;;;;;;;;;5066637;28;20494;-73
2022/07/18 01:51:46;;;;;;;2.72;1.20;;;;;;;;;;5067369;28;20171;-74
2022/07/18 01:54:12;;;;;;;3.95;1.23;;;;;;;;;;5068194;28;20028;-74
2022/07/18 01:56:37;;;;;;;3.28;1.13;;;;;;;;;;5068062;28;20029;-74
2022/07/18 01:59:03;;;;;;;2.20;1.00;;;;;;;;;;5067035;28;20410;-71
2022/07/18 02:01:28;;;;;;;1.65;1.10;;;;;;;;;;5068205;28;20106;-71
2022/07/18 02:03:53;;;;;;;3.40;1.30;;;;;;;;;;5068116;28;20028;-71
2022/07/18 02:06:18;;;;;;;3.03;1.33;;;;;;;;;;5066071;28;20303;-72
2022/07/18 02:08:44;;;;;;;1.67;1.20;;;;;;;;;;5065758;28;20032;-72
2022/07/18 02:11:09;;;;;;;2.15;1.20;;;;;;;;;;5066675;28;20502;-72
2022/07/18 02:13:35;;;;;;;2.95;1.10;;;;;;;;;;5067092;28;20508;-72
2022/07/18 02:16:00;;;;;;;2.92;1.42;;;;;;;;;;5067183;28;20032;-72
2022/07/18 02:18:26;;;;;;;1.92;1.20;;;;;;;;;;5067683;28;20024;-72
2022/07/18 02:20:51;;;;;;;4.32;1.98;;;;;;;;;;5067882;28;20032;-72
2022/07/18 02:23:16;;;;;;;2.05;1.05;;;;;;;;;;5067205;28;20050;-72
2022/07/18 02:25:42;;;;;;;1.70;1.25;;;;;;;;;;5068039;28;20493;-72
2022/07/18 02:28:07;;;;;;;3.33;1.35;;;;;;;;;;5067911;28;20105;-72
2022/07/18 02:30:32;;;;;;;2.50;1.25;;;;;;;;;;5068043;28;20036;-72
2022/07/18 02:32:58;;;;;;;4.30;1.35;;;;;;;;;;5067841;28;20111;-72
2022/07/18 02:35:23;;;;;;;2.20;1.45;;;;;;;;;;5066826;28;20029;-72
2022/07/18 02:37:48;;;;;;;2.55;1.30;;;;;;;;;;5067193;28;20033;-72
2022/07/18 02:40:14;;;;;;;2.92;1.30;;;;;;;;;;5069704;28;20021;-72
2022/07/18 02:42:39;;;;;;;3.03;1.30;;;;;;;;;;5071378;28;20059;-73
2022/07/18 02:45:06;;;;;;;1.60;1.30;;;;;;;;;;5071467;28;20021;-72
2022/07/18 02:47:31;;;;;;;4.20;1.27;;;;;;;;;;5071568;28;20074;-72
2022/07/18 02:49:56;;;;;;;2.67;1.20;;;;;;;;;;5071223;28;20067;-72
2022/07/18 02:52:22;;;;;;;2.72;1.40;;;;;;;;;;5071399;28;20078;-72
2022/07/18 02:54:47;;;;;;;4.07;1.60;;;;;;;;;;5070641;28;20478;-72
2022/07/18 02:57:12;;;;;;;2.55;1.20;;;;;;;;;;5072054;28;20051;-72
2022/07/18 02:59:38;;;;;;;5.70;1.50;;;;;;;;;;5070545;28;20024;-72
2022/07/18 03:02:04;;;;;;;2.70;1.30;;;;;;;;;;5070229;28;20169;-72
2022/07/18 03:04:29;;;;;;;3.25;1.30;;;;;;;;;;5070623;28;20394;-72
2022/07/18 03:06:54;;;;;;;3.40;1.33;;;;;;;;;;5070343;28;20036;-72
2022/07/18 03:09:20;;;;;;;4.78;1.60;;;;;;;;;;5070714;28;20046;-72
2022/07/18 03:11:46;;;;;;;1.23;1.13;;;;;;;;;;5071336;28;20058;-72
2022/07/18 03:14:11;;;;;;;1.90;1.52;;;;;;;;;;5071006;28;20028;-72
2022/07/18 03:16:37;;;;;;;3.92;1.30;;;;;;;;;;5071054;28;20031;-72
2022/07/18 03:19:02;;;;;;;1.50;1.10;;;;;;;;;;5070622;28;20031;-72
2022/07/18 03:21:28;;;;;;;3.33;1.70;;;;;;;;;;5071525;28;20048;-72
2022/07/18 03:23:54;;;;;;;2.90;1.30;;;;;;;;;;5071688;28;20030;-72
2022/07/18 03:26:19;;;;;;;2.70;1.33;;;;;;;;;;5071219;28;20114;-72
2022/07/18 03:28:44;;;;;;;3.53;1.20;;;;;;;;;;5069919;28;20035;-72
2022/07/18 03:31:11;;;;;;;3.67;1.58;;;;;;;;;;5060730;28;20348;-72
2022/07/18 03:33:36;;;;;;;2.78;1.73;;;;;;;;;;5070800;28;20025;-72
2022/07/18 03:36:02;;;;;;;2.65;1.30;;;;;;;;;;5070005;28;20024;-72
2022/07/18 03:38:27;;;;;;;1.83;1.10;;;;;;;;;;5069028;28;20055;-72
2022/07/18 03:40:52;;;;;;;2.20;1.23;;;;;;;;;;5070604;28;20103;-72
2022/07/18 03:43:18;;;;;;;1.55;1.20;;;;;;;;;;5070628;28;20020;-72
2022/07/18 03:45:43;;;;;;;1.38;1.10;;;;;;;;;;5070519;28;20449;-72
2022/07/18 03:48:08;;;;;;;4.43;1.50;;;;;;;;;;5070385;28;20059;-72
2022/07/18 03:50:34;;;;;;;2.35;1.48;;;;;;;;;;5070236;28;20081;-72
2022/07/18 03:52:59;;;;;;;2.83;1.30;;;;;;;;;;5070804;28;20386;-72
2022/07/18 03:55:24;;;;;;;4.57;1.48;;;;;;;;;;5069214;28;20028;-72
2022/07/18 03:57:50;;;;;;;4.88;1.40;;;;;;;;;;5070291;28;20059;-72
2022/07/18 04:00:15;;;;;;;2.65;1.40;;;;;;;;;;5069655;28;20398;-72
2022/07/18 04:02:43;;;;;;;2.65;1.45;;;;;;;;;;5070307;28;20034;-72
2022/07/18 04:05:10;;;;;;;2.90;1.50;;;;;;;;;;5068849;28;20032;-72
2022/07/18 04:07:35;;;;;;;1.63;1.17;;;;;;;;;;5070271;28;20038;-72
2022/07/18 04:10:01;;;;;;;3.20;1.60;;;;;;;;;;5070088;28;20115;-72
2022/07/18 04:12:27;;;;;;;4.03;1.58;;;;;;;;;;5070132;28;20456;-72
2022/07/18 04:14:52;;;;;;;4.03;1.20;;;;;;;;;;5069461;28;20112;-72
2022/07/18 04:17:17;;;;;;;2.50;1.27;;;;;;;;;;5068987;28;20024;-72
2022/07/18 04:19:43;;;;;;;5.40;1.45;;;;;;;;;;5069911;28;20077;-72
2022/07/18 04:22:08;;;;;;;3.80;1.38;;;;;;;;;;5068201;28;20505;-72
2022/07/18 04:24:33;;;;;;;2.67;1.65;;;;;;;;;;5069645;28;20032;-74
2022/07/18 04:26:59;;;;;;;2.33;1.30;;;;;;;;;;5069674;28;20074;-74
2022/07/18 04:29:24;;;;;;;4.18;1.50;;;;;;;;;;5069571;28;20060;-74
2022/07/18 04:31:49;;;;;;;5.53;1.48;;;;;;;;;;5068796;28;20043;-74
2022/07/18 04:34:15;;;;;;;5.90;1.60;;;;;;;;;;5069459;28;20044;-72
2022/07/18 04:36:40;;;;;;;4.47;1.52;;;;;;;;;;5069377;28;20616;-71
2022/07/18 04:39:05;;;;;;;8.60;1.50;;;;;;;;;;5069184;28;20036;-72
2022/07/18 04:41:31;;;;;;;3.38;1.42;;;;;;;;;;5069524;28;20098;-72
2022/07/18 04:43:56;;;;;;;1.50;1.05;;;;;;;;;;5069254;28;20453;-72
2022/07/18 04:46:21;;;;;;;2.75;1.13;;;;;;;;;;5069304;28;20032;-71
2022/07/18 04:48:47;;;;;;;1.88;1.10;;;;;;;;;;5067776;28;20031;-71
2022/07/18 04:51:12;;;;;;;3.83;1.40;;;;;;;;;;5069131;28;20078;-71
2022/07/18 04:53:37;;;;;;;2.60;1.33;;;;;;;;;;5069071;28;20036;-71
2022/07/18 04:56:03;;;;;;;2.83;1.10;;;;;;;;;;5064700;28;20028;-71
2022/07/18 04:58:28;;;;;;;6.05;1.70;;;;;;;;;;5068821;28;20031;-74
2022/07/18 05:00:55;;;;;;;4.15;1.30;;;;;;;;;;5081727;28;20477;-72
2022/07/18 05:03:21;;;;;;;3.75;1.50;;;;;;;;;;5088607;28;20020;-73
2022/07/18 05:05:46;;;;;;;3.10;1.75;;;;;;;;;;5069696;28;20055;-72
2022/07/18 05:08:13;;;;;;;4.72;1.73;;;;;;;;;;5068897;28;20392;-72
2022/07/18 05:10:39;;;;;;;3.53;1.38;;;;;;;;;;5069992;28;20266;-74
2022/07/18 05:13:04;;;;;;;6.25;1.63;;;;;;;;;;5068682;28;20146;-71
2022/07/18 05:15:29;;;;;;;3.65;1.30;;;;;;;;;;5065521;28;20050;-72
2022/07/18 05:17:55;;;;;;;3.15;1.52;;;;;;;;;;5070769;28;20427;-71
2022/07/18 05:20:22;;;;;;;4.70;1.70;;;;;;;;;;5068630;28;20460;-71
2022/07/18 05:22:47;;;;;;;2.58;1.30;;;;;;;;;;5066973;28;20473;-71
2022/07/18 05:25:14;;;;;;;3.22;1.38;;;;;;;;;;5071555;28;20143;-71
2022/07/18 05:27:40;;;;;;;3.15;1.58;;;;;;;;;;5088817;28;20110;-72
2022/07/18 05:30:09;;;;;;;2.65;1.33;;;;;;;;;;5087254;28;20070;-72
2022/07/18 05:32:35;;;;;;;2.42;1.35;;;;;;;;;;5071806;28;20028;-72
2022/07/18 05:35:00;;;;;;;3.90;1.50;;;;;;;;;;5068370;28;20046;-71
2022/07/18 05:37:26;;;;;;;4.45;1.48;;;;;;;;;;5070263;28;20401;-72
2022/07/18 05:39:51;;;;;;;14.30;3.15;;;;;;;;;;5068324;28;20349;-72
2022/07/18 05:42:17;;;;;;;5.78;2.20;;;;;;;;;;5067133;28;20115;-73
2022/07/18 05:44:42;;;;;;;6.47;1.88;;;;;;;;;;5067776;28;20038;-72
2022/07/18 05:47:08;;;;;;;5.05;1.60;;;;;;;;;;5066995;28;20016;-71
2022/07/18 05:49:33;;;;;;;5.40;1.50;;;;;;;;;;5067715;28;20382;-72
2022/07/18 05:51:58;;;;;;;3.97;2.03;;;;;;;;;;5074351;28;20314;-74
2022/07/18 05:54:23;;;;;;;3.83;1.70;;;;;;;;;;5066768;28;20032;-74
2022/07/18 05:56:50;;;;;;;2.50;1.58;;;;;;;;;;5067987;28;20052;-72
2022/07/18 05:59:16;;;;;;;4.28;1.73;;;;;;;;;;5067676;28;20099;-73
2022/07/18 06:01:42;;;;;;;5.45;1.40;;;;;;;;;;5068051;28;20114;-72
2022/07/18 06:04:07;;;;;;;4.97;1.45;;;;;;;;;;5062771;28;20116;-71
2022/07/18 06:06:32;;;;;;;5.60;1.70;;;;;;;;;;5063038;28;20036;-70
2022/07/18 06:08:58;;;;;;;12.90;4.50;;;;;;;;;;5063912;28;20025;-71
2022/07/18 06:11:23;;;;;;;4.30;1.50;;;;;;;;;;5068180;28;20029;-70
2022/07/18 06:13:49;;;;;;;3.95;1.45;;;;;;;;;;5067704;28;20459;-70
2022/07/18 06:16:14;;;;;;;4.15;1.50;;;;;;;;;;5067722;28;20028;-71
2022/07/18 06:18:39;;;;;;;4.32;1.20;;;;;;;;;;5064103;28;20531;-71
2022/07/18 06:21:05;;;;;;;3.47;1.52;;;;;;;;;;5071376;28;20017;-71
2022/07/18 06:23:30;;;;;;;4.10;1.40;;;;;;;;;;5070971;28;20073;-71
2022/07/18 06:25:57;;;;;;;2.50;1.35;;;;;;;;;;5070895;28;20486;-71
2022/07/18 06:28:22;;;;;;;2.83;1.40;;;;;;;;;;5070081;28;20117;-71
2022/07/18 06:30:48;;;;;;;8.90;1.35;;;;;;;;;;5070633;28;20108;-71
2022/07/18 06:33:13;;;;;;;3.25;1.50;;;;;;;;;;5071507;28;20082;-71
2022/07/18 06:35:39;;;;;;;2.22;1.30;;;;;;;;;;5072663;28;20039;-71
2022/07/18 06:38:05;;;;;;;3.72;1.13;;;;;;;;;;5069255;28;20024;-71
2022/07/18 06:40:30;;;;;;;3.97;1.48;;;;;;;;;;5073644;28;20078;-72
2022/07/18 06:42:56;;;;;;;3.83;1.50;;;;;;;;;;5070928;28;20498;-71
2022/07/18 06:45:21;;;;;;;6.43;1.30;;;;;;;;;;5071331;28;20519;-72
2022/07/18 06:47:46;;;;;;;4.07;1.35;;;;;;;;;;5073311;28;20028;-72
2022/07/18 06:50:13;;;;;;;6.47;1.58;;;;;;;;;;5069372;28;20076;-71
2022/07/18 06:52:39;;;;;;;4.45;1.70;;;;;;;;;;5069494;28;20020;-74
2022/07/18 06:55:05;;;;;;;3.80;1.50;;;;;;;;;;5071010;28;20031;-73
2022/07/18 06:57:31;;;;;;;5.38;1.55;;;;;;;;;;5067483;28;20031;-74
2022/07/18 06:59:56;;;;;;;4.45;1.20;;;;;;;;;;5066686;28;20225;-72
2022/07/18 07:02:21;;;;;;;5.40;1.63;;;;;;;;;;5066989;28;20490;-72
2022/07/18 07:04:47;;;;;;;8.63;1.50;;;;;;;;;;5068870;28;20036;-72
2022/07/18 07:07:12;;;;;;;3.83;1.48;;;;;;;;;;5066348;28;20431;-72
2022/07/18 07:09:37;;;;;;;2.92;1.77;;;;;;;;;;5066927;28;20037;-74
2022/07/18 07:12:03;;;;;;;3.90;1.33;;;;;;;;;;5067491;28;20686;-71
2022/07/18 07:14:28;;;;;;;4.30;1.50;;;;;;;;;;5073193;22;20077;-74
2022/07/18 07:16:53;;;;;;;5.07;1.50;;;;;;;;;;5028954;28;20390;-75
2022/07/18 07:19:18;;;;;;;1.27;1.10;;;;;;;;;;5045432;28;20025;-75
2022/07/18 07:21:44;;;;;;;5.45;1.30;;;;;;;;;;5045522;28;20369;-75
2022/07/18 07:24:09;;;;;;;5.65;1.42;;;;;;;;;;5046182;28;20474;-74
2022/07/18 07:26:34;;;;;;;4.07;1.77;;;;;;;;;;5044405;28;20276;-72
2022/07/18 07:29:00;;;;;;;4.53;1.30;;;;;;;;;;5047075;28;20040;-75
2022/07/18 07:31:25;;;;;;;2.25;1.30;;;;;;;;;;5045798;28;20385;-73
2022/07/18 07:33:50;;;;;;;5.55;1.48;;;;;;;;;;5047046;28;20032;-75
2022/07/18 07:36:16;;;;;;;3.28;1.40;;;;;;;;;;5051063;28;20032;-72
2022/07/18 07:38:41;;;;;;;2.35;1.13;;;;;;;;;;5066708;28;20036;-74
2022/07/18 07:41:06;;;;;;;2.10;1.45;;;;;;;;;;5049293;28;20616;-75
2022/07/18 07:43:32;;;;;;;3.47;1.30;;;;;;;;;;5045587;28;20024;-74
2022/07/18 07:45:57;;;;;;;5.18;1.20;;;;;;;;;;5046817;28;20036;-74
2022/07/18 07:48:23;;;;;;;6.15;1.70;;;;;;;;;;5045949;28;20039;-72
2022/07/18 07:50:50;;;;;;;2.42;1.15;;;;;;;;;;5042353;28;20029;-72
2022/07/18 07:53:16;;;;;;;3.65;1.15;;;;;;;;;;5046608;28;20032;-72
2022/07/18 07:55:41;;;;;;;4.50;1.40;;;;;;;;;;5045033;28;20028;-71
2022/07/18 07:58:06;;;;;;;2.22;1.20;;;;;;;;;;5047780;28;20032;-73
2022/07/18 08:00:32;;;;;;;2.72;1.20;;;;;;;;;;5048759;28;20074;-73
2022/07/18 08:03:01;;;;;;;2.53;1.15;;;;;;;;;;5047970;28;20064;-72
2022/07/18 08:05:28;;;;;;;4.05;1.02;;;;;;;;;;5048839;28;20036;-72
2022/07/18 08:07:54;;;;;;;2.72;1.23;;;;;;;;;;5048008;28;20162;-72
2022/07/18 08:10:20;;;;;;;2.83;1.17;;;;;;;;;;5048972;28;20063;-72
2022/07/18 08:12:45;;;;;;;5.18;1.42;;;;;;;;;;5048871;28;20029;-73
2022/07/18 08:15:10;;;;;;;8.00;2.17;;;;;;;;;;5049033;28;20059;-72
2022/07/18 08:17:36;;;;;;;3.60;1.10;;;;;;;;;;5048054;28;20040;-72
2022/07/18 08:20:02;;;;;;;3.73;1.33;;;;;;;;;;5047586;28;20501;-73
2022/07/18 08:22:28;;;;;;;2.03;1.10;;;;;;;;;;5049203;28;20044;-73
2022/07/18 08:24:53;;;;;;;2.22;1.17;;;;;;;;;;5047768;28;20029;-73
2022/07/18 08:27:18;;;;;;;3.50;1.30;;;;;;;;;;5045952;28;20052;-74
2022/07/18 08:29:44;;;;;;;4.23;1.00;;;;;;;;;;5048222;28;20289;-73
2022/07/18 08:32:09;;;;;;;3.53;1.35;;;;;;;;;;5049350;28;20037;-73
2022/07/18 08:34:34;;;;;;;5.97;1.00;;;;;;;;;;5048071;28;20025;-72
2022/07/18 08:37:00;;;;;;;4.73;1.30;;;;;;;;;;5046754;28;20032;-73
2022/07/18 08:39:25;;;;;;;5.60;1.17;;;;;;;;;;5048297;28;20027;-71
2022/07/18 08:41:51;;;;;;;5.00;1.47;;;;;;;;;;5047682;28;20033;-72
2022/07/18 08:44:17;;;;;;;3.92;1.30;;;;;;;;;;5048320;28;20655;-73
2022/07/18 08:46:49;;;;;;;5.95;1.45;;;;;;;;;;5048410;28;20032;-72
2022/07/18 08:49:15;;;;;;;7.07;1.40;;;;;;;;;;5048200;28;20617;-72
2022/07/18 08:51:41;;;;;;;2.80;1.35;;;;;;;;;;5048736;28;20028;-74
2022/07/18 08:54:07;;;;;;;4.15;1.30;;;;;;;;;;5047921;28;20410;-72
2022/07/18 08:56:33;;;;;;;7.10;1.70;;;;;;;;;;5045503;28;20487;-73
2022/07/18 08:59:02;;;;;;;4.80;1.10;;;;;;;;;;5048239;28;20205;-73
2022/07/18 09:01:27;;;;;;;7.70;1.40;;;;;;;;;;5048276;28;20254;-73
2022/07/18 09:04:14;;;;;;;7.32;1.20;;;;;;;;;;5048121;28;20035;-71
2022/07/18 09:06:45;;;;;;;3.95;1.40;;;;;;;;;;5047256;28;20024;-72
2022/07/18 09:09:13;;;;;;;6.82;1.35;;;;;;;;;;5048063;28;20017;-73
2022/07/18 09:11:53;;;;;;;2.60;1.00;;;;;;;;;;5046848;28;20033;-73
2022/07/18 09:14:30;;;;;;;3.70;0.98;;;;;;;;;;5040454;28;20065;-73
2022/07/18 09:17:06;;;;;;;4.80;1.13;;;;;;;;;;5047099;28;20031;-73
2022/07/18 09:19:32;;;;;;;4.95;1.23;;;;;;;;;;5046215;28;20444;-74
2022/07/18 09:22:21;;;;;;;1.75;1.15;;;;;;;;;;5048215;28;20219;-73
2022/07/18 09:24:53;;;;;;;5.57;1.20;;;;;;;;;;5047673;28;20576;-74
2022/07/18 09:27:24;;;;;;;2.88;1.15;;;;;;;;;;5028240;28;20081;-72
2022/07/18 09:30:07;;;;;;;2.90;1.17;;;;;;;;;;5043184;28;20521;-72
2022/07/18 09:32:33;;;;;;;2.42;0.90;;;;;;;;;;5047900;28;20037;-72
2022/07/18 09:35:07;;;;;;;2.88;1.10;;;;;;;;;;5047543;28;20025;-74
2022/07/18 09:37:33;;;;;;;3.33;1.30;;;;;;;;;;5045365;28;20111;-74
2022/07/18 09:40:20;;;;;;;1.90;1.05;;;;;;;;;;5047673;28;20108;-72
2022/07/18 09:42:50;;;;;;;1.58;1.00;;;;;;;;;;5047583;28;20060;-74
2022/07/18 09:45:20;;;;;;;4.90;1.30;;;;;;;;;;5039670;28;20105;-72
2022/07/18 09:47:50;;;;;;;1.85;0.98;;;;;;;;;;5046793;28;20067;-72
2022/07/18 09:50:29;;;;;;;1.55;1.00;;;;;;;;;;5047133;28;20048;-71
2022/07/18 09:53:03;;;;;;;2.33;0.90;;;;;;;;;;5048482;28;20029;-73
2022/07/18 09:55:29;;;;;;;3.50;1.00;;;;;;;;;;5048482;28;20379;-73
2022/07/18 09:58:05;;;;;;;1.83;0.90;;;;;;;;;;5046517;28;20071;-72
2022/07/18 10:00:32;;;;;;;2.28;0.93;;;;;;;;;;5048093;28;20471;-72
2022/07/18 10:02:58;;;;;;;2.33;0.93;;;;;;;;;;5048296;28;20028;-73
2022/07/18 10:05:27;;;;;;;2.10;1.00;;;;;;;;;;5047589;28;20040;-77
2022/07/18 10:07:52;;;;;;;3.55;1.40;;;;;;;;;;5046772;28;20457;-73
2022/07/18 10:10:18;;;;;;;2.60;1.10;;;;;;;;;;5047420;28;20021;-71
2022/07/18 10:12:44;;;;;;;2.40;1.02;;;;;;;;;;5047170;28;20060;-74
2022/07/18 10:15:10;;;;;;;2.05;1.00;;;;;;;;;;5047881;28;20041;-75
2022/07/18 10:17:36;;;;;;;1.65;1.00;;;;;;;;;;5046123;28;20033;-72
2022/07/18 10:20:05;;;;;;;1.83;1.00;;;;;;;;;;5047464;28;20025;-72
2022/07/18 10:22:37;;;;;;;2.63;1.02;;;;;;;;;;5047786;28;20063;-73
2022/07/18 10:25:05;;;;;;;1.40;1.00;;;;;;;;;;5047930;28;20028;-73
2022/07/18 10:28:06;;;;;;;2.75;0.95;;;;;;;;;;5047362;28;20374;-72
2022/07/18 10:30:53;;;;;;;1.45;0.90;;;;;;;;;;5048045;28;20134;-72
2022/07/18 10:33:39;;;;;;;1.67;1.00;;;;;;;;;;5046505;28;20514;-73
2022/07/18 10:36:07;;;;;;;1.33;1.10;;;;;;;;;;5046919;28;20025;-72
2022/07/18 10:38:33;;;;;;;3.03;1.13;;;;;;;;;;5046112;28;20021;-74
2022/07/18 10:41:03;;;;;;;3.00;1.00;;;;;;;;;;5046788;28;20064;-72
2022/07/18 10:43:31;;;;;;;;;;;;;;;;;;5048061;28;20036;-73
2022/07/18 10:45:57;;;;;;;3.72;1.00;;;;;;;;;;5044920;28;19920;-73
2022/07/18 10:48:32;;;;;;;5.07;0.90;;;;;;;;;;5044321;28;20056;-74
2022/07/18 10:51:12;;;;;;;2.20;1.00;;;;;;;;;;5046326;28;20096;-74
2022/07/18 10:53:52;;;;;;;3.70;1.15;;;;;;;;;;5046782;28;20025;-72
2022/07/18 10:56:18;;;;;;;2.97;1.10;;;;;;;;;;5045968;28;20029;-73
2022/07/18 10:58:44;;;;;;;3.25;1.00;;;;;;;;;;5045299;28;20039;-72
2022/07/18 11:01:16;;;;;;;4.65;1.42;;;;;;;;;;5047792;28;20390;-71
2022/07/18 11:03:41;;;;;;;1.92;1.20;;;;;;;;;;5048239;28;20037;-72
2022/07/18 11:06:06;;;;;;;2.67;1.15;;;;;;;;;;5051060;28;20044;-74
2022/07/18 11:08:33;;;;;;;3.63;1.10;;;;;;;;;;5050346;28;20037;-74
2022/07/18 11:11:01;;;;;;;3.40;1.10;;;;;;;;;;5050245;28;20021;-75
2022/07/18 11:13:32;;;;;;;1.45;1.00;;;;;;;;;;5050761;28;20508;-75
2022/07/18 11:16:09;;;;;;;2.22;1.10;;;;;;;;;;5050493;28;20060;-70
2022/07/18 11:18:41;;;;;;;4.88;1.15;;;;;;;;;;5049493;28;20060;-73
2022/07/18 11:21:27;;;;;;;2.00;0.85;;;;;;;;;;5050366;28;20067;-73
2022/07/18 11:24:09;;;;;;;3.05;1.27;;;;;;;;;;5045050;28;20072;-74
2022/07/18 11:26:37;;;;;;;3.78;1.10;;;;;;;;;;5044501;28;20044;-73
2022/07/18 11:29:04;;;;;;;2.25;1.27;;;;;;;;;;5049814;28;20028;-73
2022/07/18 11:31:42;;;;;;;1.27;1.00;;;;;;;;;;5051419;28;20025;-76
2022/07/18 11:34:07;;;;;;;2.63;1.13;;;;;;;;;;5050498;28;20086;-74
2022/07/18 11:36:32;;;;;;;2.37;1.10;;;;;;;;;;5049829;28;20032;-73
2022/07/18 11:39:00;;;;;;;2.50;1.13;;;;;;;;;;5049773;28;20319;-74
2022/07/18 11:41:26;;;;;;;1.98;1.20;;;;;;;;;;5050042;28;20261;-73
2022/07/18 11:43:53;;;;;;;3.63;1.25;;;;;;;;;;5050016;28;20213;-71
2022/07/18 11:46:22;;;;;;;4.00;1.20;;;;;;;;;;5049309;28;20106;-73
2022/07/18 11:48:58;;;;;;;1.25;1.05;;;;;;;;;;5049298;28;20033;-73
2022/07/18 11:51:23;;;;;;;3.08;1.13;;;;;;;;;;5049658;28;20115;-74
2022/07/18 11:53:53;;;;;;;3.55;1.10;;;;;;;;;;5049918;28;20116;-73
2022/07/18 11:56:21;;;;;;;2.30;1.23;;;;;;;;;;5049614;28;20112;-73
2022/07/18 11:58:49;;;;;;;2.50;1.20;;;;;;;;;;5047971;28;20537;-74
2022/07/18 12:01:15;;;;;;;1.77;1.10;;;;;;;;;;5038512;28;20072;-72
2022/07/18 12:03:44;;;;;;;4.63;1.10;;;;;;;;;;5038866;28;20028;-72
2022/07/18 12:06:29;;;;;;;2.45;1.30;;;;;;;;;;5045616;28;20021;-75
2022/07/18 12:08:56;;;;;;;1.88;1.15;;;;;;;;;;5044965;28;20041;-72
2022/07/18 12:11:31;;;;;;;1.92;1.05;;;;;;;;;;5031513;28;20028;-73
2022/07/18 12:14:08;;;;;;;4.72;1.20;;;;;;;;;;5044712;28;20418;-73
2022/07/18 12:16:38;;;;;;;1.48;1.20;;;;;;;;;;5045422;28;20039;-72
2022/07/18 12:19:07;;;;;;;3.45;1.10;;;;;;;;;;5044990;28;20029;-72
2022/07/18 12:22:08;;;;;;;2.63;1.30;;;;;;;;;;5042617;28;20518;-75
2022/07/18 12:24:55;;;;;;;2.50;1.33;;;;;;;;;;5043003;28;20430;-73
2022/07/18 12:27:21;;;;;;;4.05;1.20;;;;;;;;;;5043187;28;20454;-73
2022/07/18 12:30:05;;;;;;;2.83;1.40;;;;;;;;;;5042789;28;20387;-72
2022/07/18 12:32:30;;;;;;;3.53;1.52;;;;;;;;;;5039818;28;20068;-73
2022/07/18 12:34:56;;;;;;;2.03;1.17;;;;;;;;;;5044183;28;20482;-74
2022/07/18 12:37:24;;;;;;;3.70;1.23;;;;;;;;;;5045196;28;20592;-73
2022/07/18 12:39:55;;;;;;;2.72;1.20;;;;;;;;;;5044744;28;20052;-74
2022/07/18 12:42:31;;;;;;;2.35;1.52;;;;;;;;;;5045130;28;20444;-73
2022/07/18 12:44:56;;;;;;;2.15;1.40;;;;;;;;;;5043142;28;20229;-73
2022/07/18 12:47:21;;;;;;;2.50;1.17;;;;;;;;;;5043065;28;20029;-74
2022/07/18 12:49:46;;;;;;;5.67;1.40;;;;;;;;;;5045323;28;20312;-76
2022/07/18 12:52:12;;;;;;;3.90;1.60;;;;;;;;;;5044720;28;20578;-74
2022/07/18 12:54:37;;;;;;;2.47;1.30;;;;;;;;;;5045505;28;20327;-75
2022/07/18 12:57:02;;;;;;;3.03;1.40;;;;;;;;;;5043238;28;20309;-75
2022/07/18 12:59:28;;;;;;;3.13;1.25;;;;;;;;;;5043575;28;20276;-74
2022/07/18 13:01:53;;;;;;;2.37;1.10;;;;;;;;;;5044396;28;20758;-75
2022/07/18 13:04:19;;;;;;;2.37;1.10;;;;;;;;;;5043497;28;20285;-72
2022/07/18 13:06:44;;;;;;;3.92;1.30;;;;;;;;;;5043923;28;20268;-73
2022/07/18 13:09:09;;;;;;;7.10;1.53;;;;;;;;;;5044892;28;20017;-72
2022/07/18 13:11:35;;;;;;;7.57;1.93;;;;;;;;;;5044467;28;20659;-74
2022/07/18 13:14:00;;;;;;;2.92;1.40;;;;;;;;;;5044387;28;20037;-73
2022/07/18 13:16:25;;;;;;;2.75;1.20;;;;;;;;;;5043110;28;20025;-74
2022/07/18 13:18:51;;;;;;;3.93;1.30;;;;;;;;;;5042590;28;20063;-73
2022/07/18 13:21:18;;;;;;;3.25;1.20;;;;;;;;;;5044320;28;20514;-74
2022/07/18 13:23:43;;;;;;;4.78;1.42;;;;;;;;;;5043422;28;20082;-72
2022/07/18 13:26:09;;;;;;;1.77;1.20;;;;;;;;;;5043530;28;20032;-72
2022/07/18 13:28:34;;;;;;;1.98;1.33;;;;;;;;;;5043175;28;20561;-74
2022/07/18 13:30:59;;;;;;;2.13;1.30;;;;;;;;;;5043679;28;20029;-74
2022/07/18 13:33:24;;;;;;;2.92;1.15;;;;;;;;;;5044395;28;21530;-74
2022/07/18 13:35:50;;;;;;;2.45;1.40;;;;;;;;;;5041997;28;20032;-74
2022/07/18 13:38:15;;;;;;;2.10;1.50;;;;;;;;;;5041799;28;20115;-73
2022/07/18 13:40:41;;;;;;;2.63;1.27;;;;;;;;;;5043011;28;20048;-74
2022/07/18 13:43:06;;;;;;;2.13;1.00;;;;;;;;;;5043159;28;20368;-75
2022/07/18 13:45:31;;;;;;;3.70;1.30;;;;;;;;;;5042543;28;20033;-74
2022/07/18 13:47:57;;;;;;;3.92;1.50;;;;;;;;;;5046663;28;20083;-74
2022/07/18 13:50:22;;;;;;;3.03;1.13;;;;;;;;;;5042263;28;20423;-72
2022/07/18 13:52:47;;;;;;;3.78;1.40;;;;;;;;;;5032136;28;20029;-75
2022/07/18 13:55:13;;;;;;;2.57;1.37;;;;;;;;;;5047122;28;20027;-73
2022/07/18 13:57:38;;;;;;;2.60;1.58;;;;;;;;;;5042872;28;20315;-72
2022/07/18 14:00:04;;;;;;;7.03;1.50;;;;;;;;;;5044014;28;20083;-76
2022/07/18 14:02:33;;;;;;;2.00;1.20;;;;;;;;;;5042487;28;20025;-73
2022/07/18 14:04:58;;;;;;;4.43;1.20;;;;;;;;;;5043526;28;20433;-74
2022/07/18 14:07:24;;;;;;;2.60;1.23;;;;;;;;;;5042360;28;20060;-73
2022/07/18 14:09:50;;;;;;;3.38;1.60;;;;;;;;;;5042360;28;20028;-74
2022/07/18 14:12:15;;;;;;;3.72;1.40;;;;;;;;;;5045571;28;20420;-72
2022/07/18 14:14:41;;;;;;;1.63;1.25;;;;;;;;;;5063982;28;20090;-72
2022/07/18 14:17:06;;;;;;;2.72;1.30;;;;;;;;;;5043951;28;20120;-72
2022/07/18 14:19:31;;;;;;;1.85;1.25;;;;;;;;;;5044089;28;20079;-72
2022/07/18 14:21:57;;;;;;;4.23;1.30;;;;;;;;;;5042274;28;20047;-75
2022/07/18 14:24:22;;;;;;;2.17;1.10;;;;;;;;;;5043803;28;20079;-73
2022/07/18 14:26:47;;;;;;;3.03;1.30;;;;;;;;;;5042005;28;20385;-74
2022/07/18 14:29:13;;;;;;;3.17;1.10;;;;;;;;;;5042140;28;20057;-74
2022/07/18 14:31:38;;;;;;;4.22;1.33;;;;;;;;;;5042492;28;20799;-73
2022/07/18 14:34:04;;;;;;;2.90;1.20;;;;;;;;;;5041630;28;20036;-73
2022/07/18 14:36:30;;;;;;;2.00;1.17;;;;;;;;;;5044846;28;20276;-73
2022/07/18 14:38:56;;;;;;;2.30;1.10;;;;;;;;;;5046147;28;20282;-73
2022/07/18 14:41:21;;;;;;;2.70;1.15;;;;;;;;;;5046378;28;20067;-73
2022/07/18 14:43:46;;;;;;;2.80;1.10;;;;;;;;;;5046621;28;20028;-77
2022/07/18 14:46:12;;;;;;;3.10;1.47;;;;;;;;;;5046578;28;20277;-73